createdAt,value
2019-04-12T00:00:50.304Z,931.28
2019-04-12T00:01:50.258Z,931.34
2019-04-12T00:02:50.213Z,931.37
2019-04-12T00:03:50.166Z,931.32
2019-04-12T00:04:50.127Z,931.32
2019-04-12T00:05:50.075Z,931.33
2019-04-12T00:06:50.029Z,931.38
2019-04-12T00:07:49.984Z,931.31
2019-04-12T00:08:49.957Z,931.37
2019-04-12T00:09:49.912Z,931.35
2019-04-12T00:10:49.845Z,931.37
2019-04-12T00:11:49.822Z,931.34
2019-04-12T00:12:49.780Z,931.34
2019-04-12T00:13:49.728Z,931.32
2019-04-12T00:14:49.681Z,931.32
2019-04-12T00:15:49.615Z,931.33
2019-04-12T00:16:49.569Z,931.29
2019-04-12T00:17:49.526Z,931.33
2019-04-12T00:18:49.498Z,931.29
2019-04-12T00:19:49.451Z,931.37
2019-04-12T00:20:49.385Z,931.35
2019-04-12T00:21:49.340Z,931.38
2019-04-12T00:22:49.293Z,931.35
2019-04-12T00:23:49.250Z,931.37
2019-04-12T00:24:49.223Z,931.38
2019-04-12T00:25:49.156Z,931.37
2019-04-12T00:26:49.758Z,931.37
2019-04-12T00:27:49.470Z,931.37
2019-04-12T00:28:50.283Z,931.41
2019-04-12T00:29:51.228Z,931.47
2019-04-12T00:30:51.083Z,931.42
2019-04-12T00:31:51.389Z,931.46
2019-04-12T00:32:49.131Z,931.43
2019-04-12T00:33:52.511Z,931.42
2019-04-12T00:34:53.131Z,931.40
2019-04-12T00:35:49.027Z,931.45
2019-04-12T00:36:53.072Z,931.41
2019-04-12T00:37:48.627Z,931.40
2019-04-12T00:38:48.581Z,931.44
2019-04-12T00:39:48.514Z,931.38
2019-04-12T00:40:48.479Z,931.41
2019-04-12T00:41:48.444Z,931.34
2019-04-12T00:42:48.377Z,931.37
2019-04-12T00:43:48.357Z,931.33
2019-04-12T00:44:48.288Z,931.38
2019-04-12T00:45:48.260Z,931.33
2019-04-12T00:46:48.195Z,931.36
2019-04-12T00:47:48.171Z,931.35
2019-04-12T00:48:48.103Z,931.34
2019-04-12T00:49:48.081Z,931.32
2019-04-12T00:50:48.011Z,931.29
2019-04-12T00:51:47.986Z,931.31
2019-04-12T00:52:47.943Z,931.30
2019-04-12T00:53:47.874Z,931.28
2019-04-12T00:54:50.193Z,931.26
2019-04-12T00:55:48.343Z,931.27
2019-04-12T00:56:47.737Z,931.29
2019-04-12T00:57:47.699Z,931.34
2019-04-12T00:58:47.666Z,931.32
2019-04-12T00:59:48.075Z,931.30
2019-04-12T01:00:48.311Z,931.31
2019-04-12T01:01:48.146Z,931.30
2019-04-12T01:02:47.467Z,931.27
2019-04-12T01:03:47.416Z,931.27
2019-04-12T01:04:47.392Z,931.25
2019-04-12T01:05:48.745Z,931.25
2019-04-12T01:06:48.468Z,931.25
2019-04-12T01:07:48.052Z,931.26
2019-04-12T01:08:49.003Z,931.24
2019-04-12T01:09:47.145Z,931.27
2019-04-12T01:10:47.117Z,931.22
2019-04-12T01:11:47.071Z,931.25
2019-04-12T01:12:47.026Z,931.22
2019-04-12T01:13:46.979Z,931.24
2019-04-12T01:14:46.913Z,931.22
2019-04-12T01:15:46.867Z,931.24
2019-04-12T01:16:46.847Z,931.25
2019-04-12T01:17:46.795Z,931.28
2019-04-12T01:18:46.752Z,931.27
2019-04-12T01:19:46.684Z,931.25
2019-04-12T01:20:46.638Z,931.24
2019-04-12T01:21:46.592Z,931.25
2019-04-12T01:22:46.566Z,931.30
2019-04-12T01:23:46.524Z,931.30
2019-04-12T01:24:56.923Z,931.32
2019-04-12T01:25:46.430Z,931.30
2019-04-12T01:26:47.124Z,931.34
2019-04-12T01:27:47.807Z,931.32
2019-04-12T01:28:48.417Z,931.38
2019-04-12T01:29:48.059Z,931.38
2019-04-12T01:30:46.201Z,931.40
2019-04-12T01:31:46.134Z,931.35
2019-04-12T01:32:46.109Z,931.37
2019-04-12T01:33:46.043Z,931.37
2019-04-12T01:34:45.998Z,931.38
2019-04-12T01:35:45.951Z,931.38
2019-04-12T01:36:45.926Z,931.40
2019-04-12T01:37:45.860Z,931.42
2019-04-12T01:38:45.814Z,931.43
2019-04-12T01:39:45.790Z,931.41
2019-04-12T01:40:45.750Z,931.39
2019-04-12T01:41:45.699Z,931.40
2019-04-12T01:42:45.664Z,931.39
2019-04-12T01:43:45.587Z,931.35
2019-04-12T01:44:45.542Z,931.35
2019-04-12T01:45:45.514Z,931.35
2019-04-12T01:46:45.448Z,931.32
2019-04-12T01:47:45.425Z,931.34
2019-04-12T01:48:45.379Z,931.32
2019-04-12T01:49:45.310Z,931.27
2019-04-12T01:50:45.285Z,931.28
2019-04-12T01:51:45.240Z,931.29
2019-04-12T01:52:45.178Z,931.27
2019-04-12T01:53:45.127Z,931.25
2019-04-12T01:54:45.102Z,931.25
2019-04-12T01:55:45.056Z,931.25
2019-04-12T01:56:45.009Z,931.24
2019-04-12T01:57:44.945Z,931.26
2019-04-12T01:58:44.919Z,931.22
2019-04-12T01:59:44.872Z,931.21
2019-04-12T02:00:44.829Z,931.18
2019-04-12T02:01:44.780Z,931.20
2019-04-12T02:02:44.735Z,931.21
2019-04-12T02:03:44.689Z,931.15
2019-04-12T02:04:44.643Z,931.12
2019-04-12T02:05:44.578Z,931.15
2019-04-12T02:06:44.530Z,931.13
2019-04-12T02:07:44.505Z,931.12
2019-04-12T02:08:44.481Z,931.13
2019-04-12T02:09:44.414Z,931.15
2019-04-12T02:10:44.347Z,931.13
2019-04-12T02:11:44.322Z,931.15
2019-04-12T02:12:44.276Z,931.17
2019-04-12T02:13:44.230Z,931.21
2019-04-12T02:14:44.184Z,931.23
2019-04-12T02:15:44.117Z,931.20
2019-04-12T02:16:44.092Z,931.20
2019-04-12T02:17:44.045Z,931.19
2019-04-12T02:18:43.982Z,931.17
2019-04-12T02:19:43.933Z,931.14
2019-04-12T02:20:43.908Z,931.15
2019-04-12T02:21:43.857Z,931.14
2019-04-12T02:22:43.817Z,931.18
2019-04-12T02:23:43.750Z,931.18
2019-04-12T02:24:43.729Z,931.19
2019-04-12T02:25:43.658Z,931.20
2019-04-12T02:26:43.634Z,931.18
2019-04-12T02:27:43.591Z,931.14
2019-04-12T02:28:43.542Z,931.18
2019-04-12T02:29:43.522Z,931.17
2019-04-12T02:30:43.430Z,931.17
2019-04-12T02:31:43.388Z,931.18
2019-04-12T02:32:43.359Z,931.18
2019-04-12T02:33:43.312Z,931.12
2019-04-12T02:34:43.246Z,931.15
2019-04-12T02:35:43.226Z,931.12
2019-04-12T02:36:43.174Z,931.11
2019-04-12T02:37:43.111Z,931.09
2019-04-12T02:38:43.084Z,931.08
2019-04-12T02:39:43.022Z,931.12
2019-04-12T02:40:42.971Z,931.07
2019-04-12T02:41:42.949Z,931.09
2019-04-12T02:42:42.900Z,931.10
2019-04-12T02:43:42.855Z,931.12
2019-04-12T02:44:42.794Z,931.10
2019-04-12T02:45:42.769Z,931.10
2019-04-12T02:46:42.698Z,931.12
2019-04-12T02:47:42.703Z,931.14
2019-04-12T02:48:42.618Z,931.18
2019-04-12T02:49:42.568Z,931.14
2019-04-12T02:50:42.515Z,931.17
2019-04-12T02:51:42.467Z,931.21
2019-04-12T02:52:42.421Z,931.18
2019-04-12T02:53:42.376Z,931.22
2019-04-12T02:54:42.349Z,931.22
2019-04-12T02:55:42.305Z,931.24
2019-04-12T02:56:42.261Z,931.23
2019-04-12T02:57:42.218Z,931.28
2019-04-12T02:58:42.189Z,931.25
2019-04-12T02:59:42.121Z,931.27
2019-04-12T03:00:42.054Z,931.30
2019-04-12T03:01:42.008Z,931.26
2019-04-12T03:02:41.963Z,931.24
2019-04-12T03:03:41.943Z,931.25
2019-04-12T03:04:41.871Z,931.25
2019-04-12T03:05:41.826Z,931.23
2019-04-12T03:06:41.803Z,931.23
2019-04-12T03:07:41.733Z,931.23
2019-04-12T03:08:41.687Z,931.22
2019-04-12T03:09:41.641Z,931.21
2019-04-12T03:10:41.595Z,931.19
2019-04-12T03:11:41.549Z,931.20
2019-04-12T03:12:41.523Z,931.22
2019-04-12T03:13:41.457Z,931.19
2019-04-12T03:14:41.417Z,931.22
2019-04-12T03:15:41.415Z,931.19
2019-04-12T03:16:41.371Z,931.18
2019-04-12T03:17:41.284Z,931.20
2019-04-12T03:18:41.235Z,931.20
2019-04-12T03:19:41.204Z,931.19
2019-04-12T03:20:41.136Z,931.18
2019-04-12T03:21:41.125Z,931.14
2019-04-12T03:22:41.074Z,931.15
2019-04-12T03:23:41.030Z,931.14
2019-04-12T03:24:40.984Z,931.16
2019-04-12T03:25:53.004Z,931.13
2019-04-12T03:26:40.883Z,931.12
2019-04-12T03:27:40.836Z,931.12
2019-04-12T03:28:40.791Z,931.14
2019-04-12T03:29:40.755Z,931.10
2019-04-12T03:30:40.680Z,931.10
2019-04-12T03:31:40.672Z,931.13
2019-04-12T03:32:40.607Z,931.09
2019-04-12T03:33:40.540Z,931.10
2019-04-12T03:34:40.515Z,931.05
2019-04-12T03:35:43.555Z,931.04
2019-04-12T03:36:40.446Z,931.00
2019-04-12T03:37:40.355Z,931.00
2019-04-12T03:38:40.310Z,930.99
2019-04-12T03:39:40.290Z,930.98
2019-04-12T03:40:40.242Z,930.98
2019-04-12T03:41:40.193Z,930.99
2019-04-12T03:42:40.147Z,931.02
2019-04-12T03:43:40.081Z,931.02
2019-04-12T03:44:40.060Z,931.01
2019-04-12T03:45:39.996Z,930.98
2019-04-12T03:46:39.964Z,930.98
2019-04-12T03:47:39.917Z,930.95
2019-04-12T03:48:39.871Z,930.92
2019-04-12T03:49:39.806Z,930.91
2019-04-12T03:50:39.759Z,930.87
2019-04-12T03:51:39.733Z,930.83
2019-04-12T03:52:39.688Z,930.82
2019-04-12T03:53:39.623Z,930.76
2019-04-12T03:54:39.576Z,930.79
2019-04-12T03:55:39.550Z,930.75
2019-04-12T03:56:39.483Z,930.80
2019-04-12T03:57:39.467Z,930.74
2019-04-12T03:58:39.393Z,930.74
2019-04-12T03:59:39.366Z,930.74
2019-04-12T04:00:39.322Z,930.74
2019-04-12T04:01:39.257Z,930.73
2019-04-12T04:02:39.214Z,930.70
2019-04-12T04:03:39.162Z,930.70
2019-04-12T04:04:39.115Z,930.70
2019-04-12T04:05:39.091Z,930.68
2019-04-12T04:06:40.954Z,930.68
2019-04-12T04:07:38.977Z,930.62
2019-04-12T04:08:38.930Z,930.70
2019-04-12T04:09:38.885Z,930.67
2019-04-12T04:10:38.842Z,930.74
2019-04-12T04:11:38.819Z,930.71
2019-04-12T04:12:38.768Z,930.68
2019-04-12T04:13:38.722Z,930.68
2019-04-12T04:14:41.051Z,930.65
2019-04-12T04:15:38.615Z,930.64
2019-04-12T04:16:38.589Z,930.67
2019-04-12T04:17:38.538Z,930.62
2019-04-12T04:18:38.518Z,930.65
2019-04-12T04:19:38.451Z,930.66
2019-04-12T04:20:38.380Z,930.64
2019-04-12T04:21:38.376Z,930.64
2019-04-12T04:22:38.287Z,930.65
2019-04-12T04:23:38.262Z,930.67
2019-04-12T04:24:38.195Z,930.68
2019-04-12T04:25:38.154Z,930.63
2019-04-12T04:26:38.103Z,930.67
2019-04-12T04:27:38.058Z,930.66
2019-04-12T04:28:38.031Z,930.65
2019-04-12T04:29:37.968Z,930.69
2019-04-12T04:30:37.940Z,930.63
2019-04-12T04:31:37.893Z,930.64
2019-04-12T04:32:37.847Z,930.72
2019-04-12T04:33:37.780Z,930.72
2019-04-12T04:34:37.738Z,930.74
2019-04-12T04:35:37.713Z,930.77
2019-04-12T04:36:37.663Z,930.78
2019-04-12T04:37:37.617Z,930.75
2019-04-12T04:38:37.574Z,930.71
2019-04-12T04:39:37.508Z,930.76
2019-04-12T04:40:37.457Z,930.75
2019-04-12T04:41:37.413Z,930.79
2019-04-12T04:42:37.367Z,930.82
2019-04-12T04:43:37.340Z,930.79
2019-04-12T04:44:37.297Z,930.79
2019-04-12T04:45:37.249Z,930.79
2019-04-12T04:46:37.202Z,930.81
2019-04-12T04:47:37.156Z,930.82
2019-04-12T04:48:37.111Z,930.79
2019-04-12T04:49:37.043Z,930.76
2019-04-12T04:50:37.017Z,930.74
2019-04-12T04:51:36.958Z,930.78
2019-04-12T04:52:36.908Z,930.72
2019-04-12T04:53:36.879Z,930.73
2019-04-12T04:54:36.812Z,930.71
2019-04-12T04:55:36.766Z,930.70
2019-04-12T04:56:36.719Z,930.71
2019-04-12T04:57:36.673Z,930.71
2019-04-12T04:58:36.647Z,930.70
2019-04-12T04:59:36.581Z,930.69
2019-04-12T05:00:36.560Z,930.70
2019-04-12T05:01:36.510Z,930.68
2019-04-12T05:02:36.457Z,930.70
2019-04-12T05:03:36.398Z,930.67
2019-04-12T05:04:36.377Z,930.68
2019-04-12T05:05:36.307Z,930.67
2019-04-12T05:06:36.263Z,930.66
2019-04-12T05:07:36.212Z,930.69
2019-04-12T05:08:36.167Z,930.66
2019-04-12T05:09:36.140Z,930.65
2019-04-12T05:10:36.094Z,930.63
2019-04-12T05:11:36.048Z,930.60
2019-04-12T05:12:36.002Z,930.65
2019-04-12T05:13:35.955Z,930.62
2019-04-12T05:14:35.911Z,930.60
2019-04-12T05:15:35.863Z,930.59
2019-04-12T05:16:35.817Z,930.60
2019-04-12T05:17:35.750Z,930.56
2019-04-12T05:18:35.730Z,930.56
2019-04-12T05:19:35.679Z,930.59
2019-04-12T05:20:35.612Z,930.59
2019-04-12T05:21:35.586Z,930.61
2019-04-12T05:22:35.521Z,930.59
2019-04-12T05:23:35.499Z,930.57
2019-04-12T05:24:35.447Z,930.58
2019-04-12T05:25:35.405Z,930.59
2019-04-12T05:26:45.141Z,930.63
2019-04-12T05:27:35.309Z,930.66
2019-04-12T05:28:35.262Z,930.63
2019-04-12T05:29:35.216Z,930.62
2019-04-12T05:30:35.171Z,930.66
2019-04-12T05:31:35.103Z,930.66
2019-04-12T05:32:35.058Z,930.61
2019-04-12T05:33:35.011Z,930.57
2019-04-12T05:34:34.985Z,930.57
2019-04-12T05:35:34.939Z,930.56
2019-04-12T05:36:34.872Z,930.59
2019-04-12T05:37:34.846Z,930.56
2019-04-12T05:38:34.800Z,930.57
2019-04-12T05:39:34.754Z,930.59
2019-04-12T05:40:34.707Z,930.59
2019-04-12T05:41:34.645Z,930.53
2019-04-12T05:42:34.652Z,930.50
2019-04-12T05:43:34.568Z,930.52
2019-04-12T05:44:34.522Z,930.49
2019-04-12T05:45:34.456Z,930.49
2019-04-12T05:46:34.409Z,930.51
2019-04-12T05:47:34.381Z,930.49
2019-04-12T05:48:34.316Z,930.49
2019-04-12T05:49:34.291Z,930.51
2019-04-12T05:50:34.223Z,930.50
2019-04-12T05:51:34.198Z,930.48
2019-04-12T05:52:34.151Z,930.51
2019-04-12T05:53:34.108Z,930.52
2019-04-12T05:54:35.218Z,930.50
2019-04-12T05:55:33.991Z,930.52
2019-04-12T05:56:33.945Z,930.50
2019-04-12T05:57:33.903Z,930.48
2019-04-12T05:58:33.874Z,930.49
2019-04-12T05:59:33.807Z,930.48
2019-04-12T06:00:33.762Z,930.50
2019-04-12T06:01:33.714Z,930.50
2019-04-12T06:02:33.674Z,930.48
2019-04-12T06:03:35.382Z,930.49
2019-04-12T06:04:34.921Z,930.49
2019-04-12T06:05:33.528Z,930.47
2019-04-12T06:06:33.502Z,930.45
2019-04-12T06:07:33.436Z,930.44
2019-04-12T06:08:33.391Z,930.39
2019-04-12T06:09:33.343Z,930.37
2019-04-12T06:10:33.296Z,930.32
2019-04-12T06:11:33.271Z,930.37
2019-04-12T06:12:33.224Z,930.37
2019-04-12T06:13:33.179Z,930.37
2019-04-12T06:14:33.111Z,930.34
2019-04-12T06:15:33.065Z,930.35
2019-04-12T06:16:33.018Z,930.31
2019-04-12T06:17:32.972Z,930.36
2019-04-12T06:18:32.949Z,930.33
2019-04-12T06:19:32.882Z,930.31
2019-04-12T06:20:32.853Z,930.29
2019-04-12T06:21:32.807Z,930.31
2019-04-12T06:22:33.291Z,930.33
2019-04-12T06:23:32.716Z,930.32
2019-04-12T06:24:32.647Z,930.30
2019-04-12T06:25:32.621Z,930.31
2019-04-12T06:26:32.554Z,930.32
2019-04-12T06:27:32.541Z,930.29
2019-04-12T06:28:32.485Z,930.30
2019-04-12T06:29:32.436Z,930.30
2019-04-12T06:30:32.369Z,930.25
2019-04-12T06:31:32.342Z,930.27
2019-04-12T06:32:32.297Z,930.22
2019-04-12T06:33:32.230Z,930.24
2019-04-12T06:34:32.184Z,930.26
2019-04-12T06:35:32.137Z,930.22
2019-04-12T06:36:32.110Z,930.23
2019-04-12T06:37:32.044Z,930.23
2019-04-12T06:38:31.998Z,930.24
2019-04-12T06:39:31.971Z,930.26
2019-04-12T06:40:31.924Z,930.24
2019-04-12T06:41:31.878Z,930.29
2019-04-12T06:42:31.811Z,930.30
2019-04-12T06:43:31.785Z,930.26
2019-04-12T06:44:31.718Z,930.21
2019-04-12T06:45:31.692Z,930.24
2019-04-12T06:46:31.625Z,930.21
2019-04-12T06:47:31.579Z,930.21
2019-04-12T06:48:31.551Z,930.16
2019-04-12T06:49:31.507Z,930.28
2019-04-12T06:50:31.439Z,930.22
2019-04-12T06:51:31.432Z,930.17
2019-04-12T06:52:31.346Z,930.20
2019-04-12T06:53:31.299Z,930.17
2019-04-12T06:54:31.274Z,930.18
2019-04-12T06:55:31.227Z,930.18
2019-04-12T06:56:31.161Z,930.19
2019-04-12T06:57:31.115Z,930.20
2019-04-12T06:58:31.086Z,930.17
2019-04-12T06:59:31.020Z,930.15
2019-04-12T07:00:30.974Z,930.18
2019-04-12T07:01:30.928Z,930.19
2019-04-12T07:02:30.901Z,930.19
2019-04-12T07:03:30.855Z,930.15
2019-04-12T07:04:30.787Z,930.18
2019-04-12T07:05:30.780Z,930.14
2019-04-12T07:06:30.715Z,930.18
2019-04-12T07:07:30.669Z,930.18
2019-04-12T07:08:30.624Z,930.20
2019-04-12T07:09:30.574Z,930.18
2019-04-12T07:10:30.529Z,930.22
2019-04-12T07:11:30.528Z,930.17
2019-04-12T07:12:30.415Z,930.23
2019-04-12T07:13:30.391Z,930.23
2019-04-12T07:14:30.329Z,930.24
2019-04-12T07:15:30.275Z,930.24
2019-04-12T07:16:30.229Z,930.21
2019-04-12T07:17:30.203Z,930.19
2019-04-12T07:18:30.136Z,930.15
2019-04-12T07:19:30.092Z,930.18
2019-04-12T07:20:30.064Z,930.18
2019-04-12T07:21:29.996Z,930.22
2019-04-12T07:22:29.954Z,930.17
2019-04-12T07:23:29.903Z,930.20
2019-04-12T07:24:29.877Z,930.22
2019-04-12T07:25:29.810Z,930.22
2019-04-12T07:26:29.783Z,930.18
2019-04-12T07:27:34.823Z,930.17
2019-04-12T07:28:29.670Z,930.18
2019-04-12T07:29:29.645Z,930.18
2019-04-12T07:30:29.578Z,930.21
2019-04-12T07:31:29.531Z,930.21
2019-04-12T07:32:29.505Z,930.24
2019-04-12T07:33:29.441Z,930.24
2019-04-12T07:34:29.391Z,930.27
2019-04-12T07:35:29.346Z,930.26
2019-04-12T07:36:29.299Z,930.25
2019-04-12T07:37:29.252Z,930.25
2019-04-12T07:38:29.208Z,930.24
2019-04-12T07:39:29.161Z,930.25
2019-04-12T07:40:29.113Z,930.27
2019-04-12T07:41:29.066Z,930.26
2019-04-12T07:42:29.044Z,930.31
2019-04-12T07:43:28.974Z,930.30
2019-04-12T07:44:28.932Z,930.31
2019-04-12T07:45:28.901Z,930.27
2019-04-12T07:46:28.855Z,930.28
2019-04-12T07:47:28.756Z,930.30
2019-04-12T07:48:28.741Z,930.31
2019-04-12T07:49:28.694Z,930.31
2019-04-12T07:50:28.669Z,930.27
2019-04-12T07:51:28.622Z,930.25
2019-04-12T07:52:28.555Z,930.28
2019-04-12T07:53:28.533Z,930.25
2019-04-12T07:54:28.465Z,930.26
2019-04-12T07:55:28.416Z,930.27
2019-04-12T07:56:28.948Z,930.29
2019-04-12T07:57:28.343Z,930.30
2019-04-12T07:58:28.276Z,930.32
2019-04-12T07:59:28.230Z,930.30
2019-04-12T08:00:28.203Z,930.30
2019-04-12T08:01:28.158Z,930.28
2019-04-12T08:02:28.111Z,930.27
2019-04-12T08:03:28.065Z,930.28
2019-04-12T08:04:27.998Z,930.28
2019-04-12T08:05:27.973Z,930.27
2019-04-12T08:06:27.947Z,930.29
2019-04-12T08:07:27.858Z,930.28
2019-04-12T08:08:27.812Z,930.28
2019-04-12T08:09:27.779Z,930.19
2019-04-12T08:10:27.720Z,930.21
2019-04-12T08:11:27.694Z,930.20
2019-04-12T08:12:27.626Z,930.17
2019-04-12T08:13:27.580Z,930.17
2019-04-12T08:14:27.554Z,930.15
2019-04-12T08:15:27.512Z,930.17
2019-04-12T08:16:27.442Z,930.18
2019-04-12T08:17:27.416Z,930.18
2019-04-12T08:18:27.375Z,930.19
2019-04-12T08:19:27.325Z,930.20
2019-04-12T08:20:27.265Z,930.19
2019-04-12T08:21:27.209Z,930.17
2019-04-12T08:22:27.165Z,930.19
2019-04-12T08:23:27.120Z,930.22
2019-04-12T08:24:27.072Z,930.17
2019-04-12T08:25:27.051Z,930.19
2019-04-12T08:26:26.996Z,930.20
2019-04-12T08:27:26.951Z,930.23
2019-04-12T08:28:26.886Z,930.20
2019-04-12T08:29:26.838Z,930.26
2019-04-12T08:30:26.811Z,930.28
2019-04-12T08:31:26.745Z,930.29
2019-04-12T08:32:26.698Z,930.25
2019-04-12T08:33:26.652Z,930.27
2019-04-12T08:34:26.611Z,930.25
2019-04-12T08:35:26.584Z,930.24
2019-04-12T08:36:26.533Z,930.21
2019-04-12T08:37:26.486Z,930.21
2019-04-12T08:38:26.440Z,930.22
2019-04-12T08:39:26.414Z,930.20
2019-04-12T08:40:26.346Z,930.21
2019-04-12T08:41:26.301Z,930.21
2019-04-12T08:42:26.255Z,930.19
2019-04-12T08:43:26.188Z,930.17
2019-04-12T08:44:26.162Z,930.19
2019-04-12T08:45:26.119Z,930.11
2019-04-12T08:46:26.069Z,930.15
2019-04-12T08:47:26.046Z,930.09
2019-04-12T08:48:26.005Z,930.07
2019-04-12T08:49:25.986Z,930.09
2019-04-12T08:50:25.880Z,930.10
2019-04-12T08:51:25.834Z,930.12
2019-04-12T08:52:25.771Z,930.08
2019-04-12T08:53:25.791Z,930.11
2019-04-12T08:54:25.708Z,930.13
2019-04-12T08:55:25.656Z,930.11
2019-04-12T08:56:25.600Z,930.10
2019-04-12T08:57:25.547Z,930.11
2019-04-12T08:58:25.511Z,930.10
2019-04-12T08:59:25.467Z,930.09
2019-04-12T09:00:25.442Z,930.11
2019-04-12T09:01:25.353Z,930.15
2019-04-12T09:02:25.325Z,930.14
2019-04-12T09:03:25.279Z,930.13
2019-04-12T09:04:25.295Z,930.17
2019-04-12T09:05:32.470Z,930.19
2019-04-12T09:06:25.142Z,930.17
2019-04-12T09:07:25.131Z,930.19
2019-04-12T09:08:25.175Z,930.18
2019-04-12T09:09:25.058Z,930.18
2019-04-12T09:10:24.970Z,930.22
2019-04-12T09:11:24.914Z,930.23
2019-04-12T09:12:24.885Z,930.31
2019-04-12T09:13:24.885Z,930.27
2019-04-12T09:14:24.767Z,930.27
2019-04-12T09:15:24.721Z,930.34
2019-04-12T09:16:24.726Z,930.30
2019-04-12T09:17:24.708Z,930.27
2019-04-12T09:18:24.622Z,930.33
2019-04-12T09:19:24.584Z,930.29
2019-04-12T09:20:24.485Z,930.32
2019-04-12T09:21:24.501Z,930.32
2019-04-12T09:22:24.403Z,930.36
2019-04-12T09:23:25.307Z,930.40
2019-04-12T09:24:24.305Z,930.41
2019-04-12T09:25:24.235Z,930.37
2019-04-12T09:26:24.267Z,930.38
2019-04-12T09:27:24.247Z,930.39
2019-04-12T09:28:25.470Z,930.42
2019-04-12T09:29:24.075Z,930.46
2019-04-12T09:30:24.078Z,930.46
2019-04-12T09:31:23.967Z,930.49
2019-04-12T09:32:23.963Z,930.50
2019-04-12T09:33:23.963Z,930.53
2019-04-12T09:34:23.841Z,930.56
2019-04-12T09:35:23.790Z,930.60
2019-04-12T09:36:23.744Z,930.61
2019-04-12T09:37:23.697Z,930.58
2019-04-12T09:38:23.633Z,930.57
2019-04-12T09:39:26.152Z,930.59
2019-04-12T09:40:23.560Z,930.53
2019-04-12T09:41:23.514Z,930.52
2019-04-12T09:42:23.466Z,930.55
2019-04-12T09:43:23.431Z,930.55
2019-04-12T09:44:23.378Z,930.55
2019-04-12T09:45:23.306Z,930.58
2019-04-12T09:46:23.279Z,930.57
2019-04-12T09:47:23.212Z,930.56
2019-04-12T09:48:23.171Z,930.58
2019-04-12T09:49:23.142Z,930.57
2019-04-12T09:50:23.078Z,930.61
2019-04-12T09:51:23.031Z,930.62
2019-04-12T09:52:22.995Z,930.62
2019-04-12T09:53:23.000Z,930.61
2019-04-12T09:54:22.889Z,930.65
2019-04-12T09:55:22.844Z,930.67
2019-04-12T09:56:22.801Z,930.72
2019-04-12T09:57:22.749Z,930.70
2019-04-12T09:58:22.704Z,930.70
2019-04-12T09:59:22.657Z,930.76
2019-04-12T10:00:22.633Z,930.78
2019-04-12T10:01:22.587Z,930.84
2019-04-12T10:02:22.551Z,930.88
2019-04-12T10:03:22.474Z,930.87
2019-04-12T10:04:22.510Z,930.85
2019-04-12T10:05:22.381Z,930.86
2019-04-12T10:06:22.357Z,930.87
2019-04-12T10:07:22.309Z,930.91
2019-04-12T10:08:22.243Z,930.93
2019-04-12T10:09:27.917Z,930.91
2019-04-12T10:10:22.175Z,930.94
2019-04-12T10:11:22.103Z,930.93
2019-04-12T10:12:22.078Z,930.94
2019-04-12T10:13:22.036Z,930.96
2019-04-12T10:14:21.966Z,930.96
2019-04-12T10:15:21.938Z,930.94
2019-04-12T10:16:21.874Z,930.92
2019-04-12T10:17:21.847Z,930.92
2019-04-12T10:18:21.802Z,930.96
2019-04-12T10:19:21.757Z,930.95
2019-04-12T10:20:21.714Z,930.94
2019-04-12T10:21:21.643Z,930.96
2019-04-12T10:22:21.597Z,930.97
2019-04-12T10:23:21.553Z,930.93
2019-04-12T10:24:21.525Z,931.01
2019-04-12T10:25:21.477Z,930.99
2019-04-12T10:26:21.417Z,931.01
2019-04-12T10:27:21.369Z,931.00
2019-04-12T10:28:21.321Z,931.04
2019-04-12T10:29:21.308Z,931.00
2019-04-12T10:30:21.229Z,931.04
2019-04-12T10:31:21.209Z,931.03
2019-04-12T10:32:21.137Z,931.06
2019-04-12T10:33:21.093Z,931.07
2019-04-12T10:34:21.046Z,931.08
2019-04-12T10:35:21.024Z,931.07
2019-04-12T10:36:20.974Z,931.05
2019-04-12T10:37:20.929Z,931.13
2019-04-12T10:38:20.882Z,931.11
2019-04-12T10:39:20.875Z,931.12
2019-04-12T10:40:20.771Z,931.14
2019-04-12T10:41:20.733Z,931.14
2019-04-12T10:42:20.697Z,931.18
2019-04-12T10:43:20.654Z,931.23
2019-04-12T10:44:20.607Z,931.21
2019-04-12T10:45:20.540Z,931.25
2019-04-12T10:46:20.496Z,931.26
2019-04-12T10:47:20.451Z,931.28
2019-04-12T10:48:20.406Z,931.28
2019-04-12T10:49:20.357Z,931.30
2019-04-12T10:50:20.332Z,931.27
2019-04-12T10:51:20.287Z,931.38
2019-04-12T10:52:20.243Z,931.36
2019-04-12T10:53:20.175Z,931.36
2019-04-12T10:54:20.129Z,931.36
2019-04-12T10:55:20.105Z,931.37
2019-04-12T10:56:20.060Z,931.46
2019-04-12T10:57:19.994Z,931.48
2019-04-12T10:58:19.949Z,931.46
2019-04-12T10:59:19.906Z,931.54
2019-04-12T11:00:19.882Z,931.55
2019-04-12T11:01:19.836Z,931.53
2019-04-12T11:02:19.796Z,931.50
2019-04-12T11:03:19.727Z,931.56
2019-04-12T11:04:19.684Z,931.54
2019-04-12T11:05:19.646Z,931.57
2019-04-12T11:06:29.791Z,931.61
2019-04-12T11:07:19.577Z,931.63
2019-04-12T11:08:19.512Z,931.63
2019-04-12T11:09:19.468Z,931.63
2019-04-12T11:10:19.427Z,931.61
2019-04-12T11:11:19.404Z,931.57
2019-04-12T11:12:19.351Z,931.66
2019-04-12T11:13:19.299Z,931.67
2019-04-12T11:14:19.258Z,931.68
2019-04-12T11:15:21.793Z,931.60
2019-04-12T11:16:19.196Z,931.61
2019-04-12T11:17:19.141Z,931.58
2019-04-12T11:18:19.091Z,931.60
2019-04-12T11:19:19.046Z,931.63
2019-04-12T11:20:19.028Z,931.65
2019-04-12T11:21:21.330Z,931.66
2019-04-12T11:22:18.919Z,931.72
2019-04-12T11:23:18.898Z,931.72
2019-04-12T11:24:18.834Z,931.71
2019-04-12T11:25:29.270Z,931.74
2019-04-12T11:26:18.773Z,931.78
2019-04-12T11:27:18.723Z,931.75
2019-04-12T11:28:18.671Z,931.75
2019-04-12T11:29:18.618Z,931.72
2019-04-12T11:30:18.597Z,931.68
2019-04-12T11:31:18.530Z,931.74
2019-04-12T11:32:18.488Z,931.74
2019-04-12T11:33:18.445Z,931.71
2019-04-12T11:34:18.422Z,931.68
2019-04-12T11:35:18.377Z,931.74
2019-04-12T11:36:18.316Z,931.68
2019-04-12T11:37:18.273Z,931.68
2019-04-12T11:38:18.245Z,931.69
2019-04-12T11:39:18.204Z,931.66
2019-04-12T11:40:21.133Z,931.68
2019-04-12T11:41:18.124Z,931.68
2019-04-12T11:42:20.095Z,931.68
2019-04-12T11:43:18.008Z,931.64
2019-04-12T11:44:17.963Z,931.64
2019-04-12T11:45:17.919Z,931.67
2019-04-12T11:46:17.914Z,931.67
2019-04-12T11:47:17.851Z,931.67
2019-04-12T11:48:17.808Z,931.71
2019-04-12T11:49:17.766Z,931.70
2019-04-12T11:50:17.703Z,931.69
2019-04-12T11:51:17.655Z,931.70
2019-04-12T11:52:17.614Z,931.67
2019-04-12T11:53:17.587Z,931.70
2019-04-12T11:54:17.542Z,931.62
2019-04-12T11:55:17.480Z,931.66
2019-04-12T11:56:17.437Z,931.65
2019-04-12T11:57:17.392Z,931.58
2019-04-12T11:58:17.368Z,931.59
2019-04-12T11:59:29.065Z,931.58
2019-04-12T12:00:17.283Z,931.59
2019-04-12T12:01:17.222Z,931.65
2019-04-12T12:02:17.194Z,931.64
2019-04-12T12:03:17.172Z,931.66
2019-04-12T12:04:17.087Z,931.64
2019-04-12T12:05:17.040Z,931.60
2019-04-12T12:06:17.018Z,931.60
2019-04-12T12:07:16.993Z,931.62
2019-04-12T12:08:16.932Z,931.62
2019-04-12T12:09:16.896Z,931.64
2019-04-12T12:10:16.848Z,931.61
2019-04-12T12:11:16.777Z,931.60
2019-04-12T12:12:16.734Z,931.64
2019-04-12T12:13:16.729Z,931.62
2019-04-12T12:14:16.650Z,931.66
2019-04-12T12:15:16.623Z,931.63
2019-04-12T12:16:16.562Z,931.66
2019-04-12T12:17:16.514Z,931.59
2019-04-12T12:18:16.468Z,931.62
2019-04-12T12:19:16.451Z,931.58
2019-04-12T12:20:16.385Z,931.60
2019-04-12T12:21:16.357Z,931.54
2019-04-12T12:22:16.550Z,931.56
2019-04-12T12:23:16.248Z,931.56
2019-04-12T12:24:16.204Z,931.57
2019-04-12T12:25:16.181Z,931.58
2019-04-12T12:26:16.137Z,931.58
2019-04-12T12:27:16.072Z,931.61
2019-04-12T12:28:16.049Z,931.59